createdAt,value
2023-05-24T00:00:14.394Z,73.00
2023-05-24T00:02:44.941Z,73.14
2023-05-24T00:05:13.021Z,73.17
2023-05-24T00:07:41.042Z,73.17
2023-05-24T00:10:09.797Z,73.26
2023-05-24T00:12:37.776Z,73.22
2023-05-24T00:15:06.279Z,73.41
2023-05-24T00:17:36.047Z,73.42
2023-05-24T00:20:06.450Z,73.42
2023-05-24T00:22:35.164Z,73.51
2023-05-24T00:25:03.149Z,73.62
2023-05-24T00:27:31.182Z,73.70
2023-05-24T00:29:59.129Z,73.70
2023-05-24T00:32:27.182Z,73.91
2023-05-24T00:34:55.282Z,73.90
2023-05-24T00:37:23.211Z,74.00
2023-05-24T00:39:51.107Z,74.01
2023-05-24T00:42:19.048Z,74.25
2023-05-24T00:44:47.675Z,74.27
2023-05-24T00:47:15.820Z,74.65
2023-05-24T00:49:44.101Z,74.56
2023-05-24T00:52:12.083Z,74.52
2023-05-24T00:54:42.047Z,74.48
2023-05-24T00:57:10.134Z,74.49
2023-05-24T00:59:38.405Z,74.57
2023-05-24T01:02:06.494Z,74.68
2023-05-24T01:04:34.559Z,74.70
2023-05-24T01:07:10.802Z,74.75
2023-05-24T01:10:04.693Z,74.88
2023-05-24T01:12:48.188Z,74.96
2023-05-24T01:15:48.118Z,75.13
2023-05-24T01:18:27.666Z,75.39
2023-05-24T01:21:21.742Z,75.33
2023-05-24T01:23:55.731Z,75.44
2023-05-24T01:26:41.518Z,75.24
2023-05-24T01:29:10.104Z,75.68
2023-05-24T01:31:38.534Z,75.52
2023-05-24T01:34:06.412Z,75.59
2023-05-24T01:36:34.306Z,75.74
2023-05-24T01:39:02.435Z,76.11
2023-05-24T01:41:54.588Z,76.13
2023-05-24T01:44:28.247Z,76.22
2023-05-24T01:47:05.979Z,76.08
2023-05-24T01:49:39.896Z,76.15
2023-05-24T01:52:14.235Z,76.12
2023-05-24T01:54:47.007Z,76.39
2023-05-24T01:57:16.156Z,76.36
2023-05-24T01:59:45.931Z,76.41
2023-05-24T02:02:14.233Z,76.52
2023-05-24T02:04:42.550Z,76.64
2023-05-24T02:07:10.520Z,76.60
2023-05-24T02:09:38.488Z,76.65
2023-05-24T02:12:06.959Z,76.51
2023-05-24T02:14:34.842Z,76.36
2023-05-24T02:17:04.120Z,76.42
2023-05-24T02:19:32.308Z,76.52
2023-05-24T02:22:00.293Z,76.54
2023-05-24T02:24:28.177Z,76.60
2023-05-24T02:26:57.470Z,76.57
2023-05-24T02:29:25.453Z,76.56
2023-05-24T02:31:57.631Z,76.43
2023-05-24T02:34:26.031Z,76.36
2023-05-24T02:36:55.718Z,76.36
2023-05-24T02:39:23.720Z,76.44
2023-05-24T02:41:51.766Z,76.32
2023-05-24T02:44:19.846Z,76.25
2023-05-24T02:46:47.913Z,75.93
2023-05-24T02:49:15.985Z,75.48
2023-05-24T02:51:43.919Z,75.27
2023-05-24T02:54:12.042Z,74.95
2023-05-24T02:56:40.991Z,74.71
2023-05-24T02:59:09.373Z,74.76
2023-05-24T03:01:37.325Z,74.91
2023-05-24T03:04:05.391Z,74.74
2023-05-24T03:06:34.009Z,74.58
2023-05-24T03:09:02.353Z,74.28
2023-05-24T03:11:30.276Z,73.97
2023-05-24T03:13:58.182Z,73.60
2023-05-24T03:16:26.699Z,73.28
2023-05-24T03:18:56.794Z,73.02
2023-05-24T03:21:24.859Z,72.98
2023-05-24T03:23:52.936Z,72.73
2023-05-24T03:26:21.898Z,72.55
2023-05-24T03:28:51.856Z,72.39
2023-05-24T03:31:22.122Z,72.39
2023-05-24T03:33:50.218Z,72.42
2023-05-24T03:36:18.110Z,72.43
2023-05-24T03:38:46.350Z,72.36
2023-05-24T03:41:14.333Z,72.20
2023-05-24T03:43:42.238Z,72.07
2023-05-24T03:46:10.184Z,71.90
2023-05-24T03:48:38.148Z,71.82
2023-05-24T03:51:06.062Z,71.76
2023-05-24T03:53:34.058Z,71.77
2023-05-24T03:56:01.921Z,71.79
2023-05-24T03:58:29.888Z,71.72
2023-05-24T04:00:57.923Z,71.83
2023-05-24T04:03:27.291Z,71.83
2023-05-24T04:05:55.443Z,72.06
2023-05-24T04:08:23.572Z,72.10
2023-05-24T04:10:51.478Z,72.00
2023-05-24T04:13:19.336Z,72.07
2023-05-24T04:15:47.320Z,72.11
2023-05-24T04:18:15.338Z,72.09
2023-05-24T04:20:43.504Z,72.08
2023-05-24T04:23:11.825Z,72.30
2023-05-24T04:25:39.948Z,72.44
2023-05-24T04:28:07.911Z,72.79
2023-05-24T04:30:37.339Z,73.81
2023-05-24T04:33:05.430Z,75.86
2023-05-24T04:35:33.404Z,77.12
2023-05-24T04:38:01.439Z,78.66
2023-05-24T04:40:29.406Z,80.65
2023-05-24T04:42:57.505Z,81.43
2023-05-24T04:45:26.378Z,82.40
2023-05-24T04:47:54.389Z,82.91
2023-05-24T04:50:22.377Z,83.81
2023-05-24T04:52:50.323Z,84.39
2023-05-24T04:55:18.278Z,84.84
2023-05-24T04:57:46.287Z,85.51
2023-05-24T05:00:14.956Z,85.92
2023-05-24T05:02:42.916Z,86.36
2023-05-24T05:05:11.062Z,87.16
2023-05-24T05:07:39.704Z,87.43
2023-05-24T05:10:08.875Z,87.83
2023-05-24T05:12:36.805Z,88.46
2023-05-24T05:15:04.857Z,88.75
2023-05-24T05:17:32.839Z,89.10
2023-05-24T05:20:00.801Z,89.54
2023-05-24T05:22:30.675Z,89.71
2023-05-24T05:24:59.273Z,90.34
2023-05-24T05:27:27.405Z,90.57
2023-05-24T05:29:55.329Z,91.89
2023-05-24T05:32:23.271Z,91.09
2023-05-24T05:34:51.181Z,90.89
2023-05-24T05:37:19.090Z,90.40
2023-05-24T05:39:47.188Z,90.27
2023-05-24T05:42:15.122Z,90.56
2023-05-24T05:44:43.044Z,90.31
2023-05-24T05:47:11.087Z,90.01
2023-05-24T05:49:39.086Z,89.71
2023-05-24T05:52:07.596Z,89.80
2023-05-24T05:54:35.715Z,89.71
2023-05-24T05:57:03.746Z,89.57
2023-05-24T05:59:31.835Z,89.64
2023-05-24T06:01:59.764Z,89.61
2023-05-24T06:04:27.796Z,89.59
2023-05-24T06:06:55.858Z,89.29
2023-05-24T06:09:24.052Z,89.31
2023-05-24T06:11:52.097Z,89.33
2023-05-24T06:14:21.160Z,89.38
2023-05-24T06:16:49.861Z,89.22
2023-05-24T06:19:18.131Z,88.97
2023-05-24T06:21:49.283Z,88.83
2023-05-24T06:24:21.818Z,88.49
2023-05-24T06:26:51.814Z,87.99
2023-05-24T06:29:23.831Z,87.67
2023-05-24T06:31:52.117Z,87.46
2023-05-24T06:34:22.593Z,87.48
2023-05-24T06:36:52.588Z,87.23
2023-05-24T06:39:20.601Z,87.46
2023-05-24T06:41:48.755Z,86.95
2023-05-24T06:44:17.747Z,86.85
2023-05-24T06:46:45.721Z,86.72
2023-05-24T06:49:14.183Z,86.53
2023-05-24T06:51:42.124Z,85.73
2023-05-24T06:54:10.058Z,85.64
2023-05-24T06:56:38.141Z,85.20
2023-05-24T06:59:06.118Z,84.77
2023-05-24T07:01:34.483Z,84.50
2023-05-24T07:04:02.612Z,83.89
2023-05-24T07:06:30.630Z,83.45
2023-05-24T07:08:58.601Z,83.33
2023-05-24T07:11:26.695Z,83.27
2023-05-24T07:13:54.624Z,82.87
2023-05-24T07:16:22.821Z,83.01
2023-05-24T07:18:50.877Z,82.84
2023-05-24T07:21:18.860Z,82.93
2023-05-24T07:23:46.912Z,82.96
2023-05-24T07:26:14.849Z,83.07
2023-05-24T07:28:42.953Z,83.12
2023-05-24T07:31:11.536Z,83.48
2023-05-24T07:33:39.823Z,83.87
2023-05-24T07:36:08.496Z,84.37
2023-05-24T07:38:37.422Z,84.55
2023-05-24T07:41:06.114Z,84.53
2023-05-24T07:43:34.371Z,84.54
2023-05-24T07:46:02.316Z,84.20
2023-05-24T07:48:30.246Z,83.90
2023-05-24T07:50:58.158Z,83.70
2023-05-24T07:53:26.141Z,83.67
2023-05-24T07:55:54.080Z,83.55
2023-05-24T07:58:21.977Z,83.41
2023-05-24T08:00:50.135Z,83.50
2023-05-24T08:03:19.064Z,83.49
2023-05-24T08:05:47.091Z,83.58
2023-05-24T08:08:15.304Z,83.21
2023-05-24T08:10:43.307Z,82.48
2023-05-24T08:13:11.236Z,82.22
2023-05-24T08:15:39.199Z,81.99
2023-05-24T08:18:07.221Z,82.10
2023-05-24T08:20:37.979Z,82.21
2023-05-24T08:23:06.095Z,82.09
2023-05-24T08:25:34.383Z,81.76
2023-05-24T08:28:02.425Z,81.21
2023-05-24T08:30:30.429Z,81.12
2023-05-24T08:32:59.457Z,80.92
2023-05-24T08:35:27.471Z,80.82
2023-05-24T08:37:55.494Z,80.54
2023-05-24T08:40:25.728Z,80.18
2023-05-24T08:42:54.818Z,80.12
2023-05-24T08:45:23.920Z,80.00
2023-05-24T08:47:53.466Z,79.63
2023-05-24T08:50:22.107Z,79.62
2023-05-24T08:52:51.375Z,79.89
2023-05-24T08:55:20.097Z,79.43
2023-05-24T08:57:48.969Z,79.28
2023-05-24T09:00:18.121Z,79.11
2023-05-24T09:02:48.904Z,78.66
2023-05-24T09:05:23.120Z,78.45
2023-05-24T09:07:52.456Z,78.53
2023-05-24T09:10:23.057Z,78.43
2023-05-24T09:12:56.803Z,77.91
2023-05-24T09:15:24.940Z,77.80
2023-05-24T09:17:52.917Z,77.63
2023-05-24T09:20:22.787Z,77.35
2023-05-24T09:22:54.497Z,77.12
2023-05-24T09:25:23.048Z,76.84
2023-05-24T09:27:55.343Z,76.69
2023-05-24T09:30:23.670Z,76.53
2023-05-24T09:33:02.287Z,76.60
2023-05-24T09:35:30.301Z,77.11
2023-05-24T09:38:01.504Z,76.67
2023-05-24T09:40:30.177Z,76.56
2023-05-24T09:43:11.552Z,76.21
2023-05-24T09:45:48.100Z,75.48
2023-05-24T09:48:18.582Z,75.19
2023-05-24T09:50:49.581Z,75.37
2023-05-24T09:53:20.686Z,75.22
2023-05-24T09:55:50.150Z,74.88
2023-05-24T09:58:18.672Z,74.78
2023-05-24T10:00:47.262Z,74.68
2023-05-24T10:03:16.533Z,74.51
2023-05-24T10:05:46.616Z,74.45
2023-05-24T10:08:15.665Z,74.64
2023-05-24T10:10:44.837Z,74.68
2023-05-24T10:13:13.867Z,74.56
2023-05-24T10:15:42.470Z,74.58
2023-05-24T10:18:13.691Z,74.51
2023-05-24T10:20:46.319Z,74.58
2023-05-24T10:23:21.140Z,74.75
2023-05-24T10:26:07.825Z,74.96
2023-05-24T10:28:50.332Z,75.16
2023-05-24T10:31:29.462Z,75.07
2023-05-24T10:34:07.262Z,74.95
2023-05-24T10:36:37.059Z,75.11
2023-05-24T10:39:05.630Z,74.84
2023-05-24T10:41:42.365Z,74.95
2023-05-24T10:44:15.108Z,73.77
2023-05-24T10:47:15.192Z,73.79
2023-05-24T10:49:54.292Z,73.54
2023-05-24T10:52:22.557Z,73.09
2023-05-24T10:55:07.240Z,73.52
2023-05-24T10:57:35.815Z,73.37
2023-05-24T11:03:00.838Z,72.40
2023-05-24T11:05:51.137Z,72.83
2023-05-24T11:08:33.257Z,72.26
2023-05-24T11:11:25.570Z,71.81
2023-05-24T11:13:59.048Z,71.58
2023-05-24T11:16:39.609Z,71.84
2023-05-24T11:19:17.937Z,72.00
2023-05-24T11:21:50.860Z,72.02
2023-05-24T11:24:20.158Z,71.78
2023-05-24T11:26:48.511Z,71.53
2023-05-24T11:29:23.539Z,71.37
2023-05-24T11:31:56.824Z,70.74
2023-05-24T11:34:25.978Z,69.85
2023-05-24T11:36:54.529Z,69.56
2023-05-24T11:39:22.513Z,69.23
2023-05-24T11:41:50.872Z,68.74
2023-05-24T11:44:20.978Z,68.85
2023-05-24T11:46:48.994Z,68.83
2023-05-24T11:49:18.205Z,68.35
2023-05-24T11:51:46.218Z,68.05
2023-05-24T11:54:14.213Z,67.90
2023-05-24T11:56:42.755Z,68.30
2023-05-24T11:59:15.842Z,68.17
2023-05-24T12:01:44.682Z,67.64
2023-05-24T12:04:13.234Z,67.62
2023-05-24T12:06:45.948Z,67.37
2023-05-24T12:09:18.010Z,66.97
2023-05-24T12:11:49.412Z,66.53
2023-05-24T12:14:24.565Z,66.28
2023-05-24T12:16:55.437Z,65.92
2023-05-24T12:19:33.306Z,65.84
2023-05-24T12:22:06.259Z,65.37
2023-05-24T12:24:34.808Z,64.86
2023-05-24T12:27:08.769Z,64.38
2023-05-24T12:29:38.981Z,63.85
2023-05-24T12:32:07.929Z,63.68
2023-05-24T12:34:35.885Z,63.51
2023-05-24T12:37:04.101Z,64.04
2023-05-24T12:39:37.864Z,63.49
2023-05-24T12:42:06.394Z,63.25
2023-05-24T12:44:39.152Z,63.08
2023-05-24T12:47:09.083Z,63.28
2023-05-24T12:49:37.841Z,63.58
2023-05-24T12:52:06.420Z,63.46
2023-05-24T12:54:34.643Z,63.30
2023-05-24T12:57:03.963Z,63.19
2023-05-24T12:59:32.006Z,62.91
2023-05-24T13:01:59.998Z,62.53
2023-05-24T13:04:28.428Z,61.83
2023-05-24T13:06:56.551Z,61.45
2023-05-24T13:09:24.544Z,61.62
2023-05-24T13:11:53.598Z,61.34
2023-05-24T13:14:21.585Z,61.02
2023-05-24T13:16:49.825Z,61.10
2023-05-24T13:19:18.637Z,61.25
2023-05-24T13:21:47.285Z,61.13
2023-05-24T13:24:17.271Z,61.19
2023-05-24T13:26:45.870Z,60.87
2023-05-24T13:31:45.577Z,60.58
2023-05-24T13:34:13.721Z,60.61
2023-05-24T13:36:41.817Z,60.84
2023-05-24T13:41:42.898Z,60.73
2023-05-24T13:44:11.576Z,60.65
2023-05-24T13:46:40.286Z,60.47
2023-05-24T13:49:10.477Z,60.65
2023-05-24T13:51:39.333Z,60.87
2023-05-24T13:54:08.533Z,61.08
2023-05-24T13:56:37.326Z,61.27
2023-05-24T13:59:06.500Z,61.34
2023-05-24T14:01:35.479Z,61.34
2023-05-24T14:04:04.270Z,61.47
2023-05-24T14:06:34.043Z,61.76
2023-05-24T14:09:02.384Z,61.99
2023-05-24T14:11:33.059Z,61.78
2023-05-24T14:16:32.771Z,61.43
2023-05-24T14:19:00.925Z,61.15
2023-05-24T14:21:28.998Z,61.11
2023-05-24T14:23:57.071Z,61.07
2023-05-24T14:26:25.091Z,61.20
2023-05-24T14:28:56.005Z,60.13
2023-05-24T14:31:25.250Z,60.31
2023-05-24T14:33:53.294Z,60.59
2023-05-24T14:36:21.258Z,60.87
2023-05-24T14:38:49.264Z,60.50
2023-05-24T14:41:17.541Z,60.69
2023-05-24T14:43:45.803Z,60.62
2023-05-24T14:46:13.839Z,60.60
2023-05-24T14:48:42.855Z,60.67
2023-05-24T14:51:11.838Z,60.64
2023-05-24T14:53:39.776Z,60.71
2023-05-24T14:56:10.365Z,60.86
2023-05-24T14:58:38.415Z,60.78
2023-05-24T15:01:06.643Z,60.80
2023-05-24T15:03:35.111Z,60.90
2023-05-24T15:06:03.884Z,60.83
2023-05-24T15:08:32.309Z,60.71
2023-05-24T15:11:00.369Z,60.83
2023-05-24T15:13:28.353Z,61.05
2023-05-24T15:15:57.908Z,61.21
2023-05-24T15:18:27.033Z,61.32
2023-05-24T15:20:57.266Z,61.43
2023-05-24T15:23:26.274Z,61.42
2023-05-24T15:25:54.229Z,61.30
2023-05-24T15:28:23.471Z,61.15
2023-05-24T15:30:53.647Z,60.96
2023-05-24T15:33:21.722Z,61.14
2023-05-24T15:35:49.910Z,61.15
2023-05-24T15:38:19.828Z,61.17
2023-05-24T15:40:48.353Z,61.04
2023-05-24T15:43:19.878Z,61.01
2023-05-24T15:45:48.489Z,61.02
2023-05-24T15:48:16.663Z,61.01
2023-05-24T15:51:11.568Z,61.03
2023-05-24T15:53:32.622Z,61.08
2023-05-24T15:56:01.218Z,60.97
2023-05-24T15:58:29.157Z,61.01
2023-05-24T16:00:57.066Z,60.96
2023-05-24T16:03:25.221Z,60.92
2023-05-24T16:05:53.457Z,60.83
2023-05-24T16:08:24.588Z,60.74
2023-05-24T16:10:52.775Z,60.70
2023-05-24T16:13:21.037Z,60.81
2023-05-24T16:15:52.819Z,60.88
2023-05-24T16:18:23.792Z,60.95
2023-05-24T16:20:53.122Z,60.79
2023-05-24T16:23:24.273Z,60.83
2023-05-24T16:25:52.878Z,60.91
2023-05-24T16:28:25.244Z,60.97
2023-05-24T16:30:56.914Z,60.97
2023-05-24T16:33:25.872Z,61.17
2023-05-24T16:35:57.490Z,61.21
2023-05-24T16:38:27.351Z,61.29
2023-05-24T16:40:55.776Z,61.31
2023-05-24T16:43:24.068Z,61.33
2023-05-24T16:45:52.748Z,61.34
2023-05-24T16:48:22.789Z,61.52
2023-05-24T16:50:52.924Z,61.71
2023-05-24T16:53:24.160Z,61.74
2023-05-24T16:55:55.101Z,61.99
2023-05-24T16:58:24.051Z,61.95
2023-05-24T17:00:52.445Z,61.96
2023-05-24T17:03:23.353Z,61.96
2023-05-24T17:05:51.907Z,61.68
2023-05-24T17:08:21.993Z,61.69
2023-05-24T17:10:57.085Z,61.64
2023-05-24T17:13:25.426Z,61.56
2023-05-24T17:15:54.667Z,61.62
2023-05-24T17:18:29.326Z,61.57
2023-05-24T17:21:02.681Z,61.56
2023-05-24T17:23:35.976Z,61.42
2023-05-24T17:26:04.162Z,61.56
2023-05-24T17:28:32.524Z,61.67
2023-05-24T17:31:04.489Z,61.67
2023-05-24T17:33:33.512Z,61.70
2023-05-24T17:36:05.569Z,61.90
2023-05-24T17:38:38.993Z,62.25
2023-05-24T17:41:11.034Z,62.38
2023-05-24T17:43:41.431Z,62.52
2023-05-24T17:46:11.200Z,62.49
2023-05-24T17:48:41.396Z,62.49
2023-05-24T17:51:10.852Z,62.57
2023-05-24T17:53:39.876Z,62.80
2023-05-24T17:56:09.105Z,62.95
2023-05-24T17:58:37.639Z,62.82
2023-05-24T18:01:07.497Z,62.92
2023-05-24T18:03:40.044Z,63.25
2023-05-24T18:06:09.165Z,63.13
2023-05-24T18:08:39.262Z,63.11
2023-05-24T18:11:10.088Z,63.13
2023-05-24T18:13:43.458Z,62.93
2023-05-24T18:16:12.613Z,63.03
2023-05-24T18:18:40.958Z,63.17
2023-05-24T18:21:10.929Z,63.07
2023-05-24T18:23:39.419Z,63.07
2023-05-24T18:26:09.448Z,62.96
2023-05-24T18:28:42.721Z,62.91
2023-05-24T18:31:15.848Z,63.09
2023-05-24T18:33:43.824Z,63.31
2023-05-24T18:36:12.104Z,63.26
2023-05-24T18:38:42.957Z,63.44
2023-05-24T18:41:13.073Z,63.46
2023-05-24T18:43:41.590Z,63.25
2023-05-24T18:46:14.489Z,63.35
2023-05-24T18:48:43.281Z,63.34
2023-05-24T18:51:11.644Z,63.19
2023-05-24T18:53:39.612Z,63.00
2023-05-24T18:56:07.816Z,63.12
2023-05-24T18:58:35.830Z,63.44
2023-05-24T19:01:03.891Z,63.66
2023-05-24T19:03:32.050Z,64.17
2023-05-24T19:06:00.067Z,65.11
2023-05-24T19:08:28.324Z,66.41
2023-05-24T19:10:56.249Z,67.48
2023-05-24T19:13:24.239Z,67.98
2023-05-24T19:15:52.249Z,68.65
2023-05-24T19:18:20.540Z,68.95
2023-05-24T19:20:50.143Z,69.70
2023-05-24T19:23:18.265Z,70.32
2023-05-24T19:25:49.164Z,70.56
2023-05-24T19:28:18.026Z,71.21
2023-05-24T19:30:46.022Z,71.54
2023-05-24T19:33:14.067Z,72.34
2023-05-24T19:35:42.704Z,72.83
2023-05-24T19:38:11.118Z,73.18
2023-05-24T19:40:39.062Z,73.43
2023-05-24T19:43:07.303Z,73.40
2023-05-24T19:45:35.319Z,73.59
2023-05-24T19:48:03.345Z,73.77
2023-05-24T19:50:31.592Z,74.29
2023-05-24T19:52:59.519Z,74.87
2023-05-24T19:55:27.687Z,75.30
2023-05-24T19:57:55.787Z,75.44
2023-05-24T20:00:23.929Z,75.70
2023-05-24T20:02:51.933Z,75.60
2023-05-24T20:05:19.964Z,75.58
2023-05-24T20:07:47.960Z,76.24
2023-05-24T20:10:15.927Z,76.41
2023-05-24T20:12:44.122Z,76.41
2023-05-24T20:15:15.292Z,76.66
2023-05-24T20:17:43.405Z,76.09
2023-05-24T20:20:11.874Z,75.43
2023-05-24T20:22:39.870Z,74.74
2023-05-24T20:25:08.417Z,73.96
2023-05-24T20:27:36.704Z,73.29
2023-05-24T20:30:05.510Z,72.64
2023-05-24T20:32:33.620Z,71.91
2023-05-24T20:35:01.909Z,71.49
2023-05-24T20:37:30.126Z,71.34
2023-05-24T20:39:58.346Z,70.59
2023-05-24T20:42:26.343Z,70.22
2023-05-24T20:44:54.295Z,69.83
2023-05-24T20:47:22.213Z,69.82
2023-05-24T20:49:50.171Z,69.91
2023-05-24T20:52:18.177Z,70.35
2023-05-24T20:54:46.324Z,70.58
2023-05-24T20:57:14.222Z,71.12
2023-05-24T20:59:42.352Z,71.57
2023-05-24T21:02:10.298Z,71.91
2023-05-24T21:04:38.287Z,71.72
2023-05-24T21:07:06.277Z,71.38
2023-05-24T21:09:34.380Z,70.57
2023-05-24T21:12:02.950Z,69.37
2023-05-24T21:14:31.831Z,68.61
2023-05-24T21:17:00.021Z,67.78
2023-05-24T21:19:28.306Z,67.78
2023-05-24T21:21:56.234Z,67.54
2023-05-24T21:24:24.320Z,67.17
2023-05-24T21:26:52.622Z,66.61
2023-05-24T21:29:20.786Z,66.43
2023-05-24T21:31:49.835Z,66.15
2023-05-24T21:34:17.786Z,66.03
2023-05-24T21:36:45.858Z,66.18
2023-05-24T21:39:13.794Z,66.25
2023-05-24T21:41:41.948Z,65.94
2023-05-24T21:44:10.562Z,65.81
2023-05-24T21:46:38.673Z,65.72
2023-05-24T21:49:06.710Z,65.61
2023-05-24T21:51:34.969Z,65.83
2023-05-24T21:54:02.988Z,66.27
2023-05-24T21:56:31.000Z,66.53
2023-05-24T21:58:59.252Z,66.41
2023-05-24T22:01:27.369Z,66.29
2023-05-24T22:03:55.672Z,65.93
2023-05-24T22:06:25.251Z,65.86
2023-05-24T22:08:53.203Z,65.49
2023-05-24T22:11:21.324Z,65.15
2023-05-24T22:13:49.300Z,64.79
2023-05-24T22:16:17.629Z,64.40
2023-05-24T22:18:45.679Z,64.08
2023-05-24T22:21:15.667Z,63.77
2023-05-24T22:23:45.327Z,63.65
2023-05-24T22:26:14.136Z,63.23
2023-05-24T22:28:52.034Z,63.04
2023-05-24T22:31:21.042Z,62.68
2023-05-24T22:33:52.526Z,62.82
2023-05-24T22:36:20.393Z,62.52
2023-05-24T22:38:48.314Z,62.52
2023-05-24T22:41:16.285Z,62.04
2023-05-24T22:43:44.291Z,61.53
2023-05-24T22:46:12.287Z,61.13
2023-05-24T22:48:41.962Z,60.81
2023-05-24T22:51:10.616Z,60.46
2023-05-24T22:53:39.438Z,60.18
2023-05-24T22:56:09.193Z,59.59
2023-05-24T22:58:38.042Z,59.15
2023-05-24T23:01:06.120Z,59.05
2023-05-24T23:03:34.085Z,58.98
2023-05-24T23:06:05.715Z,59.02
2023-05-24T23:08:34.617Z,58.60
2023-05-24T23:11:02.614Z,58.24
2023-05-24T23:13:34.362Z,57.96
2023-05-24T23:16:02.447Z,57.99
2023-05-24T23:18:30.585Z,57.86
2023-05-24T23:20:59.216Z,57.72
2023-05-24T23:23:28.568Z,57.64
2023-05-24T23:25:56.570Z,57.73
2023-05-24T23:28:24.530Z,57.25
2023-05-24T23:30:52.643Z,57.11
2023-05-24T23:33:20.574Z,57.18
2023-05-24T23:35:48.548Z,57.13
2023-05-24T23:38:17.194Z,57.14
2023-05-24T23:40:45.246Z,57.14
2023-05-24T23:43:13.228Z,57.28
2023-05-24T23:45:41.183Z,57.22
2023-05-24T23:48:09.255Z,57.39
2023-05-24T23:50:50.261Z,57.48
2023-05-24T23:53:21.690Z,57.40
2023-05-24T23:55:49.723Z,57.38
2023-05-24T23:58:17.696Z,57.54
